Time;durP1;ratioP1;P1;durP2;ratioP2;P2;SDS_P1;SDS_P2;PMS_P1;PMS_P2;Temp;Humidity;BMP_temperature;BMP_pressure;BME280_temperature;BME280_humidity;BME280_pressure;Samples;Min_cycle;Max_cycle;Signal;HPM_P1;HPM_P2
2023/12/12 00:01:23;;;;;;;12.55;4.65;;;;;;;8.62;100.00;100691.47;4841242;29;20061;-68
2023/12/12 00:04:12;;;;;;;11.80;4.90;;;;;;;8.61;100.00;100684.41;4823401;29;20515;-67
2023/12/12 00:07:00;;;;;;;16.88;5.50;;;;;;;8.59;100.00;100686.56;4823975;29;20158;-68
2023/12/12 00:09:48;;;;;;;15.80;5.05;;;;;;;8.58;100.00;100695.78;4825078;29;20053;-68
2023/12/12 00:12:36;;;;;;;13.57;5.22;;;;;;;8.57;100.00;100697.69;4825942;29;20054;-68
2023/12/12 00:15:24;;;;;;;15.50;5.10;;;;;;;8.57;100.00;100702.31;4822898;29;20062;-67
2023/12/12 00:18:12;;;;;;;17.65;5.85;;;;;;;8.55;100.00;100699.84;4824413;29;20058;-68
2023/12/12 00:21:00;;;;;;;14.40;5.38;;;;;;;8.53;100.00;100700.09;4832605;29;20046;-68
2023/12/12 00:23:48;;;;;;;14.30;4.65;;;;;;;8.54;100.00;100714.50;4827328;29;20053;-68
2023/12/12 00:26:36;;;;;;;16.55;5.22;;;;;;;8.52;100.00;100703.88;4839233;29;20053;-67
2023/12/12 00:29:24;;;;;;;17.10;5.47;;;;;;;8.52;100.00;100708.50;4837503;29;20110;-67
2023/12/12 00:32:12;;;;;;;14.90;5.57;;;;;;;8.50;100.00;100706.03;4834146;29;20435;-68
2023/12/12 00:35:00;;;;;;;14.10;4.88;;;;;;;8.49;100.00;100698.97;4822634;29;20055;-67
2023/12/12 00:37:49;;;;;;;13.30;4.72;;;;;;;8.49;100.00;100698.13;4821489;29;20058;-68
2023/12/12 00:40:37;;;;;;;13.52;5.22;;;;;;;8.48;100.00;100702.75;4823499;29;20060;-67
2023/12/12 00:43:25;;;;;;;13.02;4.75;;;;;;;8.48;100.00;100707.38;4809466;29;20050;-68
2023/12/12 00:46:13;;;;;;;14.55;4.95;;;;;;;8.48;100.00;100707.38;4823558;29;20065;-68
2023/12/12 00:49:01;;;;;;;13.35;4.50;;;;;;;8.48;100.00;100708.19;4823116;29;20046;-68
2023/12/12 00:51:49;;;;;;;12.10;4.95;;;;;;;8.47;100.00;100711.16;4822979;29;20052;-68
2023/12/12 00:54:37;;;;;;;12.90;4.88;;;;;;;8.46;100.00;100704.91;4835921;29;20141;-68
2023/12/12 00:57:26;;;;;;;13.68;4.28;;;;;;;8.44;100.00;100698.09;4827633;29;20058;-67
2023/12/12 01:00:14;;;;;;;12.52;4.85;;;;;;;8.42;100.00;100709.22;4822476;29;20050;-68
2023/12/12 01:03:02;;;;;;;14.95;5.13;;;;;;;8.41;100.00;100707.56;4821643;29;20051;-68
2023/12/12 01:05:50;;;;;;;14.10;5.28;;;;;;;8.41;100.00;100701.31;4824578;29;20203;-68
2023/12/12 01:08:38;;;;;;;13.85;5.25;;;;;;;8.38;100.00;100694.47;4822075;29;20047;-68
2023/12/12 01:11:26;;;;;;;15.07;4.70;;;;;;;8.31;100.00;100686.53;4833457;29;20050;-68
2023/12/12 01:14:14;;;;;;;12.40;4.78;;;;;;;8.28;100.00;100681.63;4827849;29;20050;-68
2023/12/12 01:17:06;;;;;;;11.55;4.80;;;;;;;8.27;100.00;100681.88;4843762;29;20058;-68
2023/12/12 01:19:54;;;;;;;12.32;4.70;;;;;;;8.27;100.00;100681.88;4844694;29;20046;-68
2023/12/12 01:22:43;;;;;;;13.70;5.88;;;;;;;8.26;100.00;100691.91;4833212;29;20494;-69
2023/12/12 01:25:31;;;;;;;17.67;7.10;;;;;;;8.25;100.00;100692.16;4839452;29;20125;-67
2023/12/12 01:28:19;;;;;;;16.58;7.30;;;;;;;8.26;100.00;100685.69;4844011;29;20395;-68
2023/12/12 01:31:07;;;;;;;16.23;7.10;;;;;;;8.25;100.00;100684.03;4827482;29;20530;-68
2023/12/12 01:33:55;;;;;;;17.23;6.80;;;;;;;8.24;100.00;100674.25;4826291;29;20061;-68
2023/12/12 01:36:43;;;;;;;20.20;6.47;;;;;;;8.22;100.00;100673.69;4824000;29;20057;-68
2023/12/12 01:39:31;;;;;;;16.08;5.60;;;;;;;8.21;100.00;100674.78;4824922;29;20133;-68
2023/12/12 01:42:19;;;;;;;16.38;5.65;;;;;;;8.18;100.00;100665.25;4831112;29;20064;-68
2023/12/12 01:45:08;;;;;;;17.08;5.30;;;;;;;8.14;100.00;100663.31;4841773;29;20442;-68
2023/12/12 01:47:56;;;;;;;15.15;5.03;;;;;;;8.10;100.00;100657.53;4842865;29;20528;-67
2023/12/12 01:50:44;;;;;;;12.82;4.70;;;;;;;8.08;100.00;100657.81;4831708;29;20038;-67
2023/12/12 01:53:45;;;;;;;14.23;4.88;;;;;;;8.03;100.00;100656.94;4829792;29;20056;-68
2023/12/12 01:56:34;;;;;;;17.05;5.25;;;;;;;7.99;100.00;100653.91;4825648;29;20054;-68
2023/12/12 01:59:24;;;;;;;13.63;4.35;;;;;;;7.96;100.00;100659.88;4825337;29;20087;-67
2023/12/12 02:02:13;;;;;;;13.02;3.88;;;;;;;7.99;100.00;100661.25;4812586;29;20150;-67
2023/12/12 02:05:01;;;;;;;14.68;5.10;;;;;;;7.97;100.00;100664.19;4827996;29;20052;-67
2023/12/12 02:07:49;;;;;;;16.42;5.10;;;;;;;7.94;100.00;100658.44;4812843;29;20061;-67
2023/12/12 02:10:38;;;;;;;12.85;4.30;;;;;;;7.88;100.00;100655.69;4832100;29;20444;-68
2023/12/12 02:13:26;;;;;;;17.75;5.15;;;;;;;7.88;100.00;100655.69;4826611;29;20050;-68
2023/12/12 02:16:15;;;;;;;16.92;4.93;;;;;;;7.86;100.00;100651.59;4832216;29;20046;-69
2023/12/12 02:19:03;;;;;;;15.05;4.75;;;;;;;7.86;100.00;100657.00;4830780;29;20058;-68
2023/12/12 02:21:51;;;;;;;15.63;4.72;;;;;;;7.87;100.00;100653.25;4838694;29;20051;-67
2023/12/12 02:24:39;;;;;;;13.82;5.20;;;;;;;7.88;100.00;100649.44;4841909;29;20042;-67
2023/12/12 02:27:27;;;;;;;17.60;5.20;;;;;;;7.89;100.00;100662.78;4845275;29;20041;-67
2023/12/12 02:30:16;;;;;;;17.60;4.97;;;;;;;7.89;100.00;100659.25;4851696;29;20514;-67
2023/12/12 02:33:04;;;;;;;15.05;5.00;;;;;;;7.87;100.00;100654.06;4828483;29;20046;-68
2023/12/12 02:35:53;;;;;;;14.07;4.95;;;;;;;7.85;100.00;100652.69;4852501;29;20129;-64
2023/12/12 02:38:40;;;;;;;17.58;5.20;;;;;;;7.83;100.00;100655.63;4862616;29;20049;-65
2023/12/12 02:41:28;;;;;;;17.15;4.78;;;;;;;7.83;100.00;100646.69;4848780;29;20050;-63
2023/12/12 02:44:16;;;;;;;17.55;4.63;;;;;;;7.85;100.00;100650.78;4846381;29;20043;-68
2023/12/12 02:47:04;;;;;;;16.98;4.93;;;;;;;7.87;100.00;100647.81;4828454;29;20046;-67
2023/12/12 02:49:52;;;;;;;18.45;4.97;;;;;;;7.86;100.00;100651.59;4811938;29;20042;-67
2023/12/12 02:52:40;;;;;;;14.65;4.63;;;;;;;7.82;100.00;100647.78;4823950;29;20047;-67
2023/12/12 02:55:28;;;;;;;15.68;5.00;;;;;;;7.79;100.00;100650.97;4823573;29;20200;-68
2023/12/12 02:58:16;;;;;;;15.63;5.60;;;;;;;7.78;100.00;100654.75;4823867;29;20461;-67
2023/12/12 03:01:04;;;;;;;19.83;5.53;;;;;;;7.77;100.00;100648.53;4824642;29;20050;-68
2023/12/12 03:03:53;;;;;;;16.63;4.93;;;;;;;7.74;100.00;100659.03;4825506;29;20046;-66
2023/12/12 03:06:41;;;;;;;18.27;5.22;;;;;;;7.75;100.00;100653.38;4824011;29;20071;-68
2023/12/12 03:09:29;;;;;;;15.63;4.72;;;;;;;7.75;100.00;100652.56;4824198;29;20061;-69
2023/12/12 03:12:17;;;;;;;12.10;4.43;;;;;;;7.75;100.00;100647.16;4839329;29;20145;-68
2023/12/12 03:15:05;;;;;;;21.05;5.88;;;;;;;7.74;100.00;100642.78;4824028;29;20125;-69
2023/12/12 03:17:53;;;;;;;10.80;4.68;;;;;;;7.74;100.00;100642.78;4822650;29;20119;-67
2023/12/12 03:20:41;;;;;;;19.65;5.88;;;;;;;7.72;100.00;100634.06;4824941;29;20058;-69
2023/12/12 03:23:29;;;;;;;17.75;5.10;;;;;;;7.70;100.00;100628.91;4830899;29;20094;-68
2023/12/12 03:26:17;;;;;;;15.43;4.97;;;;;;;7.66;100.00;100627.78;4834745;29;20058;-68
2023/12/12 03:29:05;;;;;;;22.70;5.43;;;;;;;7.62;100.00;100630.16;4823821;29;20504;-70
2023/12/12 03:31:53;;;;;;;19.60;5.78;;;;;;;7.56;100.00;100625.75;4824222;29;20054;-68
2023/12/12 03:34:41;;;;;;;14.85;4.97;;;;;;;7.49;100.00;100621.59;4834764;29;20133;-68
2023/12/12 03:37:29;;;;;;;18.95;5.50;;;;;;;7.50;100.00;100629.47;4840299;29;20531;-69
2023/12/12 03:40:18;;;;;;;16.33;5.00;;;;;;;7.54;100.00;100627.91;4839760;29;20140;-67
2023/12/12 03:43:07;;;;;;;18.38;5.70;;;;;;;7.57;100.00;100621.97;4831788;29;20050;-68
2023/12/12 03:45:55;;;;;;;18.70;5.20;;;;;;;7.58;100.00;100618.19;4836637;29;20129;-69
2023/12/12 03:48:43;;;;;;;19.83;5.72;;;;;;;7.58;100.00;100623.63;4840939;29;20115;-68
2023/12/12 03:51:31;;;;;;;16.10;5.45;;;;;;;7.59;100.00;100619.00;4826503;29;20051;-68
2023/12/12 03:54:19;;;;;;;16.75;5.35;;;;;;;7.59;100.00;100610.88;4824856;29;20058;-69
2023/12/12 03:57:07;;;;;;;18.88;5.50;;;;;;;7.56;100.00;100605.97;4823671;29;20047;-69
2023/12/12 03:59:55;;;;;;;17.55;4.82;;;;;;;7.56;100.00;100595.94;4812020;29;20050;-67
2023/12/12 04:02:43;;;;;;;17.95;5.75;;;;;;;7.57;100.00;100599.47;4824939;29;20104;-69
2023/12/12 04:05:31;;;;;;;20.65;5.78;;;;;;;7.55;100.00;100593.47;4812627;29;20050;-68
2023/12/12 04:08:19;;;;;;;16.52;5.57;;;;;;;7.52;100.00;100591.28;4823285;29;20069;-67
2023/12/12 04:11:07;;;;;;;21.88;5.65;;;;;;;7.49;100.00;100581.75;4818460;29;20057;-67
2023/12/12 04:13:56;;;;;;;21.73;5.57;;;;;;;7.46;100.00;100582.28;4834952;29;20562;-68
2023/12/12 04:16:44;;;;;;;20.73;5.75;;;;;;;7.49;100.00;100581.75;4817666;29;20050;-68
2023/12/12 04:19:32;;;;;;;20.67;6.45;;;;;;;7.51;100.00;100582.34;4841884;29;20049;-68
2023/12/12 04:22:20;;;;;;;21.55;6.38;;;;;;;7.53;100.00;100577.47;4823598;29;20054;-68
2023/12/12 04:25:11;;;;;;;19.45;6.47;;;;;;;7.49;100.00;100576.34;4836290;29;20145;-68
2023/12/12 04:27:59;;;;;;;20.77;6.22;;;;;;;7.49;100.00;100580.94;4840972;29;20054;-69
2023/12/12 04:30:47;;;;;;;18.60;6.18;;;;;;;7.47;100.00;100573.88;4836824;29;20492;-68
2023/12/12 04:33:36;;;;;;;20.88;5.85;;;;;;;7.48;100.00;100580.13;4824023;29;20042;-68
2023/12/12 04:36:24;;;;;;;16.70;5.35;;;;;;;7.50;100.00;100572.53;4809754;29;20051;-68
2023/12/12 04:39:16;;;;;;;25.30;6.72;;;;;;;7.51;100.00;100568.78;4822936;29;20050;-68
2023/12/12 04:42:04;;;;;;;22.50;6.30;;;;;;;7.49;100.00;100576.34;4828970;29;20150;-67
2023/12/12 04:44:52;;;;;;;28.67;6.45;;;;;;;7.51;100.00;100570.69;4830272;29;20049;-67
2023/12/12 04:47:40;;;;;;;23.33;5.88;;;;;;;7.54;100.00;100573.69;4841063;29;20054;-68
2023/12/12 04:50:28;;;;;;;23.83;5.45;;;;;;;7.57;100.00;100573.16;4844828;29;20054;-67
2023/12/12 04:53:17;;;;;;;23.33;6.15;;;;;;;7.60;100.00;100561.84;4844358;29;20068;-68
2023/12/12 04:56:06;;;;;;;22.52;6.22;;;;;;;7.62;100.00;100565.09;4842701;29;20057;-68
2023/12/12 04:58:54;;;;;;;22.33;6.57;;;;;;;7.64;100.00;100560.22;4830444;29;20333;-68
2023/12/12 05:01:43;;;;;;;24.95;7.72;;;;;;;7.65;100.00;100553.75;4831116;29;20084;-67
2023/12/12 05:04:31;;;;;;;24.35;5.88;;;;;;;7.66;100.00;100541.81;4826712;29;20637;-67
2023/12/12 05:07:19;;;;;;;20.60;5.82;;;;;;;7.65;100.00;100540.19;4830179;29;20061;-67
2023/12/12 05:10:07;;;;;;;21.67;5.40;;;;;;;7.66;100.00;100536.41;4841850;29;20050;-68
2023/12/12 05:12:56;;;;;;;23.45;6.22;;;;;;;7.69;100.00;100535.06;4835087;29;20415;-68
2023/12/12 05:15:44;;;;;;;20.88;6.00;;;;;;;7.69;100.00;100533.16;4843383;29;20050;-67
2023/12/12 05:18:32;;;;;;;32.30;7.07;;;;;;;7.70;100.00;100528.59;4843933;29;20045;-68
2023/12/12 05:21:21;;;;;;;25.30;6.70;;;;;;;7.70;100.00;100531.28;4834725;29;20054;-67
2023/12/12 05:24:10;;;;;;;21.50;6.32;;;;;;;7.71;100.00;100534.81;4825099;29;20054;-69
2023/12/12 05:26:58;;;;;;;21.65;5.90;;;;;;;7.71;100.00;100524.78;4825994;29;20056;-67
2023/12/12 05:29:46;;;;;;;24.95;6.28;;;;;;;7.69;100.00;100527.75;4825324;29;20061;-67
2023/12/12 05:32:34;;;;;;;25.38;6.75;;;;;;;7.67;100.00;100521.78;4826251;29;20057;-67
2023/12/12 05:35:22;;;;;;;26.00;6.40;;;;;;;7.68;100.00;100520.69;4838352;29;20430;-68
2023/12/12 05:38:12;;;;;;;26.70;6.85;;;;;;;7.69;100.00;100524.22;4845221;29;20086;-67
2023/12/12 05:41:00;;;;;;;22.23;5.72;;;;;;;7.71;100.00;100521.25;4848867;29;20075;-68
2023/12/12 05:43:48;;;;;;;22.40;6.30;;;;;;;7.73;100.00;100510.97;4859097;29;20057;-68
2023/12/12 05:46:35;;;;;;;26.00;6.75;;;;;;;7.73;100.00;100510.97;4844144;29;20042;-67
2023/12/12 05:49:24;;;;;;;25.70;6.78;;;;;;;7.73;100.00;100524.53;4841530;29;20403;-68
2023/12/12 05:52:12;;;;;;;26.45;6.47;;;;;;;7.74;100.00;100526.97;4825771;29;20131;-68
2023/12/12 05:55:00;;;;;;;23.92;6.95;;;;;;;7.72;100.00;100521.00;4837391;29;20414;-69
2023/12/12 05:57:50;;;;;;;24.08;6.57;;;;;;;7.72;100.00;100525.59;4827273;29;20058;-68
2023/12/12 06:00:39;;;;;;;19.05;6.07;;;;;;;7.72;100.00;100525.59;4830563;29;20064;-69
2023/12/12 06:03:28;;;;;;;25.17;6.57;;;;;;;7.72;100.00;100525.59;4837112;29;20195;-68
2023/12/12 06:06:16;;;;;;;26.05;6.80;;;;;;;7.68;100.00;100514.47;4825107;29;20050;-67
2023/12/12 06:09:04;;;;;;;29.05;7.90;;;;;;;7.63;100.00;100508.97;4836067;29;20058;-68
2023/12/12 06:11:52;;;;;;;28.95;7.47;;;;;;;7.60;100.00;100509.47;4832637;29;20499;-68
2023/12/12 06:14:44;;;;;;;27.25;7.43;;;;;;;7.59;100.00;100519.50;4835080;29;20058;-69
2023/12/12 06:17:32;;;;;;;30.20;7.68;;;;;;;7.62;100.00;100505.44;4818636;29;20050;-67
2023/12/12 06:20:21;;;;;;;28.45;7.80;;;;;;;7.66;100.00;100516.59;4841402;29;20144;-67
2023/12/12 06:23:11;;;;;;;25.58;6.93;;;;;;;7.69;100.00;100511.47;4823644;29;20428;-67
2023/12/12 06:25:59;;;;;;;27.10;7.32;;;;;;;7.67;100.00;100505.50;4824701;29;20144;-68
2023/12/12 06:28:47;;;;;;;30.13;7.80;;;;;;;7.68;100.00;100514.47;4828562;29;20133;-68
2023/12/12 06:31:35;;;;;;;28.98;7.85;;;;;;;7.68;100.00;100498.19;4824773;29;20510;-69
2023/12/12 06:34:23;;;;;;;23.23;6.80;;;;;;;7.71;100.00;100499.56;4824388;29;20457;-68
2023/12/12 06:37:12;;;;;;;24.58;7.45;;;;;;;7.72;100.00;100493.06;4811872;29;20050;-67
2023/12/12 06:40:00;;;;;;;24.77;6.10;;;;;;;7.74;100.00;100493.63;4816062;29;20065;-65
2023/12/12 06:42:48;;;;;;;21.13;6.55;;;;;;;7.74;100.00;100490.91;4837558;29;20050;-65
2023/12/12 06:45:37;;;;;;;26.48;6.70;;;;;;;7.75;100.00;100489.84;4837565;29;20070;-65
2023/12/12 06:48:25;;;;;;;25.20;7.18;;;;;;;7.75;100.00;100487.94;4844120;29;20046;-66
2023/12/12 06:51:14;;;;;;;25.50;6.82;;;;;;;7.76;100.00;100486.06;4836860;29;20043;-65
2023/12/12 06:54:03;;;;;;;27.25;6.82;;;;;;;7.75;100.00;100482.53;4850645;29;20046;-66
2023/12/12 06:56:51;;;;;;;29.10;7.55;;;;;;;7.76;100.00;100475.19;4849524;29;20046;-63
2023/12/12 06:59:39;;;;;;;22.95;6.82;;;;;;;7.73;100.00;100473.81;4837584;29;20077;-68
2023/12/12 07:02:29;;;;;;;25.98;7.07;;;;;;;7.70;100.00;100468.94;4816846;29;20391;-67
2023/12/12 07:05:17;;;;;;;22.10;6.70;;;;;;;7.69;100.00;100462.66;4840428;29;20491;-68
2023/12/12 07:08:06;;;;;;;23.58;7.38;;;;;;;7.68;100.00;100461.03;4841260;29;20097;-68
2023/12/12 07:10:53;;;;;;;25.42;6.90;;;;;;;7.69;100.00;100451.81;4164090;29;10001016;-68
2023/12/12 07:13:42;;;;;;;25.98;6.70;;;;;;;7.71;100.00;100448.03;4837727;29;20053;-68
2023/12/12 07:16:33;;;;;;;23.55;6.55;;;;;;;7.72;100.00;100438.81;4831414;29;20397;-70
2023/12/12 07:19:21;;;;;;;24.45;6.72;;;;;;;7.72;100.00;100442.38;4824068;29;20424;-68
2023/12/12 07:22:09;;;;;;;27.90;6.57;;;;;;;7.73;100.00;100440.47;4827407;29;20046;-69
2023/12/12 07:24:57;;;;;;;24.23;7.07;;;;;;;7.75;100.00;100443.75;4830777;29;20125;-67
2023/12/12 07:27:45;;;;;;;27.98;6.85;;;;;;;7.77;100.00;100447.00;4835292;29;20133;-68
2023/12/12 07:30:34;;;;;;;22.75;6.22;;;;;;;7.79;100.00;100444.84;4816676;29;20515;-66
2023/12/12 07:33:22;;;;;;;30.30;7.70;;;;;;;7.78;100.00;100444.03;4830667;29;20042;-68
2023/12/12 07:36:10;;;;;;;21.17;6.85;;;;;;;7.80;100.00;100444.59;4833436;29;20053;-70
2023/12/12 07:39:00;;;;;;;23.83;6.97;;;;;;;7.81;100.00;100448.94;4839362;29;20094;-67
2023/12/12 07:41:48;;;;;;;20.48;6.55;;;;;;;7.82;100.00;100444.34;4837990;29;20136;-69
2023/12/12 07:44:36;;;;;;;22.92;6.32;;;;;;;7.83;100.00;100437.84;4838064;29;20054;-68
2023/12/12 07:47:25;;;;;;;20.83;6.53;;;;;;;7.83;100.00;100440.53;4822068;29;20058;-68
2023/12/12 07:50:24;;;;;;;26.40;6.80;;;;;;;7.83;100.00;100435.94;4825853;29;20050;-69
2023/12/12 07:53:12;;;;;;;27.77;6.32;;;;;;;7.84;100.00;100431.31;4837982;29;20426;-67
2023/12/12 07:56:00;;;;;;;25.10;6.95;;;;;;;7.84;100.00;100428.59;4829673;29;20049;-67
2023/12/12 07:58:48;;;;;;;19.50;6.13;;;;;;;7.83;100.00;100424.28;4834599;29;20106;-66
2023/12/12 08:01:37;;;;;;;22.40;6.32;;;;;;;7.85;100.00;100419.41;4828714;29;20511;-67
2023/12/12 08:04:25;;;;;;;20.58;6.30;;;;;;;7.83;100.00;100413.41;4826520;29;20480;-67
2023/12/12 08:07:13;;;;;;;26.90;6.82;;;;;;;7.85;100.00;100408.56;4802194;29;20171;-67
2023/12/12 08:10:01;;;;;;;24.05;6.70;;;;;;;7.85;100.00;100405.84;4836946;29;20466;-68
2023/12/12 08:12:49;;;;;;;26.70;7.13;;;;;;;7.86;100.00;100396.63;4820903;29;20076;-66
2023/12/12 08:15:38;;;;;;;24.83;6.35;;;;;;;7.88;100.00;100394.47;4821490;29;20141;-66
2023/12/12 08:18:26;;;;;;;23.48;6.35;;;;;;;7.88;100.00;100386.34;4823105;29;20061;-67
2023/12/12 08:21:14;;;;;;;26.80;6.30;;;;;;;7.87;100.00;100395.56;4818850;29;20050;-67
2023/12/12 08:24:03;;;;;;;23.40;6.25;;;;;;;7.88;100.00;100398.00;4823324;29;20050;-67
2023/12/12 08:26:51;;;;;;;26.33;6.90;;;;;;;7.90;100.00;100403.16;4835795;29;20086;-66
2023/12/12 08:29:39;;;;;;;25.73;6.30;;;;;;;7.89;100.00;100390.69;4826310;29;20500;-67
2023/12/12 08:32:27;;;;;;;17.60;5.43;;;;;;;7.89;100.00;100394.22;4826713;29;20160;-67
2023/12/12 08:35:15;;;;;;;26.67;6.30;;;;;;;7.92;100.00;100389.34;4839312;29;20046;-68
2023/12/12 08:38:03;;;;;;;20.23;6.38;;;;;;;7.93;100.00;100389.06;4844984;29;20077;-67
2023/12/12 08:40:51;;;;;;;22.70;6.25;;;;;;;7.95;100.00;100383.41;4849254;29;20049;-68
2023/12/12 08:43:40;;;;;;;23.77;5.90;;;;;;;7.95;100.00;100373.34;4853409;29;20049;-68
2023/12/12 08:46:28;;;;;;;19.48;6.47;;;;;;;7.96;100.00;100369.59;4834978;29;20050;-68
2023/12/12 08:49:19;;;;;;;20.70;6.00;;;;;;;7.97;100.00;100365.78;4830135;29;20054;-68
2023/12/12 08:52:08;;;;;;;24.23;6.50;;;;;;;7.97;100.00;100363.06;4819526;29;20080;-68
2023/12/12 08:54:56;;;;;;;26.70;6.50;;;;;;;7.98;100.00;100361.97;4820824;29;20161;-68
2023/12/12 08:57:46;;;;;;;26.35;6.60;;;;;;;7.99;100.00;100369.06;4830466;29;20050;-68
2023/12/12 09:00:34;;;;;;;21.00;6.45;;;;;;;8.02;100.00;100357.66;4811933;29;20117;-67
2023/12/12 09:03:23;;;;;;;31.25;7.15;;;;;;;8.06;100.00;100347.94;4818032;29;20182;-66
2023/12/12 09:06:11;;;;;;;23.33;6.10;;;;;;;8.10;100.00;100346.34;4841674;29;20102;-67
2023/12/12 09:08:59;;;;;;;23.35;6.32;;;;;;;8.15;100.00;100350.13;4840591;29;20061;-68
2023/12/12 09:11:47;;;;;;;22.05;5.63;;;;;;;8.18;100.00;100352.31;4821926;29;20200;-67
2023/12/12 09:14:35;;;;;;;26.25;6.30;;;;;;;8.20;100.00;100344.72;4830441;29;20134;-67
2023/12/12 09:17:23;;;;;;;22.85;6.03;;;;;;;8.21;100.00;100341.75;4828413;29;20054;-68
2023/12/12 09:20:12;;;;;;;18.23;5.43;;;;;;;8.23;100.00;100336.09;4835286;29;20088;-67
2023/12/12 09:23:00;;;;;;;25.58;6.90;;;;;;;8.23;100.00;100336.91;4839932;29;20062;-68
2023/12/12 09:25:49;;;;;;;21.50;6.13;;;;;;;8.24;100.00;100333.09;4838848;29;20440;-70
2023/12/12 09:28:37;;;;;;;21.90;6.72;;;;;;;8.25;100.00;100325.75;4816413;29;20050;-68
2023/12/12 09:31:29;;;;;;;25.60;6.57;;;;;;;8.29;100.00;100322.25;4840332;29;20534;-68
2023/12/12 09:34:17;;;;;;;26.40;6.97;;;;;;;8.29;100.00;100307.88;4827650;29;20065;-67
2023/12/12 09:37:05;;;;;;;18.73;5.85;;;;;;;8.31;100.00;100301.09;4830138;29;20061;-68
2023/12/12 09:39:53;;;;;;;26.60;6.55;;;;;;;8.33;100.00;100303.56;4826101;29;20065;-68
2023/12/12 09:42:41;;;;;;;26.65;6.20;;;;;;;8.34;100.00;100305.16;4824822;29;20066;-68
2023/12/12 09:45:34;;;;;;;23.33;5.40;;;;;;;8.36;100.00;100294.06;4830832;29;20093;-68
2023/12/12 09:48:23;;;;;;;27.08;6.03;;;;;;;8.37;100.00;100282.94;4839090;29;20046;-68
2023/12/12 09:51:14;;;;;;;27.73;6.55;;;;;;;8.39;100.00;100291.63;4812491;29;20174;-68
2023/12/12 09:54:07;;;;;;;23.10;6.28;;;;;;;8.41;100.00;100297.63;4825279;29;20051;-69
2023/12/12 09:56:55;;;;;;;21.55;5.85;;;;;;;8.42;100.00;100296.56;4812357;29;20058;-68
2023/12/12 09:59:43;;;;;;;23.20;6.43;;;;;;;8.44;100.00;100288.13;4832928;29;20054;-67
2023/12/12 10:02:35;;;;;;;21.38;5.63;;;;;;;8.46;100.00;100286.78;4843439;29;20098;-67
2023/12/12 10:05:24;;;;;;;22.20;6.38;;;;;;;8.48;100.00;100284.63;4842913;29;20057;-67
2023/12/12 10:08:12;;;;;;;17.73;5.15;;;;;;;8.49;100.00;100269.97;4842764;29;20057;-67
2023/12/12 10:11:03;;;;;;;22.73;5.90;;;;;;;8.52;100.00;100266.72;4827678;29;20535;-67
2023/12/12 10:13:56;;;;;;;19.52;5.60;;;;;;;8.53;100.00;100257.47;4824143;29;20051;-68
2023/12/12 10:16:44;;;;;;;20.90;5.68;;;;;;;8.57;100.00;100246.91;4824372;29;20080;-67
2023/12/12 10:19:32;;;;;;;23.60;5.85;;;;;;;8.59;100.00;100235.78;4825031;29;20085;-68
2023/12/12 10:22:21;;;;;;;23.20;5.47;;;;;;;8.61;100.00;100234.44;4813068;29;20187;-67
2023/12/12 10:25:15;;;;;;;20.98;6.13;;;;;;;8.64;100.00;100228.47;4826883;29;20115;-69
2023/12/12 10:28:03;;;;;;;19.50;5.65;;;;;;;8.68;100.00;100217.84;4811612;29;20081;-68
2023/12/12 10:30:52;;;;;;;18.92;5.45;;;;;;;8.71;100.00;100217.34;4825724;29;20419;-68
2023/12/12 10:33:41;;;;;;;20.83;5.35;;;;;;;8.76;100.00;100209.19;4823372;29;20055;-68
2023/12/12 10:36:29;;;;;;;24.15;5.85;;;;;;;8.79;100.00;100207.81;4824848;29;20050;-67
2023/12/12 10:39:18;;;;;;;20.10;5.75;;;;;;;8.84;100.00;100211.34;4825521;29;20066;-68
2023/12/12 10:42:06;;;;;;;20.63;5.65;;;;;;;8.86;100.00;100214.63;4840225;29;20053;-68
2023/12/12 10:44:56;;;;;;;29.17;5.93;;;;;;;8.88;100.00;100207.00;4840222;29;20046;-69
2023/12/12 10:47:49;;;;;;;19.83;5.28;;;;;;;8.91;100.00;100197.50;4831157;29;20199;-67
2023/12/12 10:50:38;;;;;;;16.27;5.05;;;;;;;8.94;100.00;100191.50;4799725;29;20518;-67
2023/12/12 10:53:27;;;;;;;21.83;5.18;;;;;;;8.96;100.00;100179.28;4825242;29;20137;-67
2023/12/12 10:56:17;;;;;;;16.17;5.07;;;;;;;9.07;100.00;100176.59;4827596;29;20061;-67
2023/12/12 10:59:05;;;;;;;16.02;5.00;;;;;;;9.08;100.00;100176.28;4851692;29;20064;-64
2023/12/12 11:02:14;;;;;;;17.33;5.38;;;;;;;9.10;100.00;100170.59;4838193;29;20055;-66
2023/12/12 11:05:03;;;;;;;14.70;4.40;;;;;;;9.12;100.00;100166.50;4840223;29;20112;-68
2023/12/12 11:07:52;;;;;;;12.95;4.70;;;;;;;9.16;100.00;100164.03;4832196;29;20050;-67
2023/12/12 11:10:40;;;;;;;14.73;4.63;;;;;;;9.21;100.00;100149.63;4856610;29;20566;-61
2023/12/12 11:13:33;;;;;;;14.60;4.90;;;;;;;9.26;100.00;100142.28;4856585;29;20122;-65
2023/12/12 11:16:21;;;;;;;14.98;4.63;;;;;;;9.30;100.00;100143.34;4829477;29;20062;-68
2023/12/12 11:19:19;;;;;;;16.00;4.90;;;;;;;9.33;100.00;100137.38;4826356;29;20061;-71
2023/12/12 11:22:10;;;;;;;14.45;4.30;;;;;;;9.38;100.00;100133.84;4261163;29;10001885;-67
2023/12/12 11:25:00;;;;;;;15.90;4.43;;;;;;;9.42;100.00;100131.34;4844978;29;20426;-67
2023/12/12 11:27:53;;;;;;;15.23;4.30;;;;;;;9.49;100.00;100123.72;4821798;29;20054;-67
2023/12/12 11:30:42;;;;;;;13.88;4.55;;;;;;;9.47;100.00;100118.56;4826910;29;20050;-67
2023/12/12 11:33:30;;;;;;;13.00;3.83;;;;;;;9.47;100.00;100126.72;4822206;29;20054;-68
2023/12/12 11:36:27;;;;;;;9.95;3.60;;;;;;;9.52;100.00;100113.09;4836133;29;20054;-67
2023/12/12 11:39:49;;;;;;;11.40;3.85;;;;;;;9.53;100.00;100101.13;4825529;29;20132;-67
2023/12/12 11:42:38;;;;;;;13.82;4.13;;;;;;;9.55;100.00;100100.88;4848013;29;20057;-67
2023/12/12 11:45:33;;;;;;;15.43;4.70;;;;;;;9.61;100.00;100105.19;4828259;29;20053;-68
2023/12/12 11:48:22;;;;;;;13.25;3.53;;;;;;;9.60;100.00;100095.41;4832541;29;20046;-68
2023/12/12 11:51:35;;;;;;;15.23;5.10;;;;;;;9.66;100.00;100086.09;4833230;29;20061;-67
2023/12/12 11:54:24;;;;;;;11.93;3.75;;;;;;;9.62;100.00;100087.78;4819473;29;20050;-68
2023/12/12 11:57:12;;;;;;;10.73;3.40;;;;;;;9.59;100.00;100080.16;4819508;29;20051;-69
2023/12/12 12:00:01;;;;;;;16.50;4.05;;;;;;;9.56;100.00;100069.84;4808098;29;20571;-67
2023/12/12 12:02:51;;;;;;;14.43;4.28;;;;;;;9.57;100.00;100076.91;4807461;29;20058;-68
2023/12/12 12:05:39;;;;;;;15.45;3.92;;;;;;;9.53;100.00;100062.25;4832236;29;20090;-68
2023/12/12 12:08:27;;;;;;;12.93;4.30;;;;;;;9.52;100.00;100063.34;4838612;29;20149;-69
2023/12/12 12:11:15;;;;;;;14.82;4.43;;;;;;;9.49;100.00;100058.47;4808047;29;20381;-68
2023/12/12 12:14:04;;;;;;;16.65;4.93;;;;;;;9.48;100.00;100052.22;4809180;29;20499;-67
2023/12/12 12:16:53;;;;;;;11.90;4.43;;;;;;;9.53;100.00;100054.91;4820700;29;20111;-68
2023/12/12 12:19:41;;;;;;;13.40;4.57;;;;;;;9.50;100.00;100044.59;4821901;29;20046;-68
2023/12/12 12:22:36;;;;;;;86.40;6.85;;;;;;;9.51;100.00;100046.22;4833591;29;20053;-67
2023/12/12 12:25:26;;;;;;;11.48;3.83;;;;;;;9.48;100.00;100038.63;4826320;29;20415;-67
2023/12/12 12:28:15;;;;;;;15.27;4.00;;;;;;;9.49;100.00;100028.53;4823010;29;20503;-68
2023/12/12 12:31:05;;;;;;;11.52;3.80;;;;;;;9.48;100.00;100027.75;4822092;29;20050;-68
2023/12/12 12:33:54;;;;;;;13.30;3.80;;;;;;;9.48;100.00;100024.22;4840971;29;20129;-68
2023/12/12 12:36:42;;;;;;;14.38;4.03;;;;;;;9.44;100.00;100012.25;4810253;29;20054;-68
2023/12/12 12:39:41;;;;;;;12.27;3.72;;;;;;;9.39;100.00;100016.63;4823623;29;20113;-68
2023/12/12 12:42:36;;;;;;;11.73;3.60;;;;;;;9.39;100.00;100015.81;4839542;29;20399;-69
2023/12/12 12:45:24;;;;;;;16.15;4.43;;;;;;;9.39;100.00;100007.66;4841711;29;20054;-68
2023/12/12 12:48:14;;;;;;;11.32;3.80;;;;;;;9.36;100.00;99995.44;4827377;29;20058;-68
2023/12/12 12:51:04;;;;;;;12.25;3.63;;;;;;;9.36;100.00;99995.44;4822009;29;20054;-68
2023/12/12 12:53:53;;;;;;;10.00;3.80;;;;;;;9.36;100.00;99989.19;4824331;29;20054;-68
2023/12/12 12:56:44;;;;;;;13.70;4.18;;;;;;;9.34;100.00;99986.75;4823213;29;20058;-68